Time;durP1;ratioP1;P1;durP2;ratioP2;P2;SDS_P1;SDS_P2;PMS_P1;PMS_P2;Temp;Humidity;BMP_temperature;BMP_pressure;BME280_temperature;BME280_humidity;BME280_pressure;Samples;Min_cycle;Max_cycle;Signal;HPM_P1;HPM_P2
2022/05/16 00:02:20;;;;;;;29.70;28.15;;;;;;;;;;5065827;28;20488;-63
2022/05/16 00:04:49;;;;;;;24.02;22.73;;;;;;;;;;5065215;28;20343;-63
2022/05/16 00:07:15;;;;;;;25.52;24.13;;;;;;;;;;5065267;28;20104;-63
2022/05/16 00:09:40;;;;;;;25.77;24.38;;;;;;;;;;5066237;28;20060;-62
2022/05/16 00:12:07;;;;;;;21.48;20.27;;;;;;;;;;5065219;28;20429;-63
2022/05/16 00:14:33;;;;;;;22.60;21.40;;;;;;;;;;5065886;28;20021;-63
2022/05/16 00:16:58;;;;;;;23.10;21.83;;;;;;;;;;5065305;28;20101;-63
2022/05/16 00:19:24;;;;;;;21.15;20.00;;;;;;;;;;5064772;28;20112;-63
2022/05/16 00:21:49;;;;;;;24.35;23.05;;;;;;;;;;5065407;28;20537;-62
2022/05/16 00:24:15;;;;;;;24.75;23.13;;;;;;;;;;5065586;28;20024;-62
2022/05/16 00:26:40;;;;;;;21.13;19.95;;;;;;;;;;5066102;28;20024;-64
2022/05/16 00:29:06;;;;;;;19.92;18.83;;;;;;;;;;5065527;28;20036;-63
2022/05/16 00:31:32;;;;;;;15.82;14.93;;;;;;;;;;5066116;28;20025;-63
2022/05/16 00:33:57;;;;;;;17.50;16.50;;;;;;;;;;5064317;28;20041;-63
2022/05/16 00:36:23;;;;;;;14.63;13.82;;;;;;;;;;5065740;28;20036;-62
2022/05/16 00:38:50;;;;;;;14.65;13.82;;;;;;;;;;5064990;28;20539;-62
2022/05/16 00:41:16;;;;;;;15.45;14.55;;;;;;;;;;5065586;28;20458;-62
2022/05/16 00:43:47;;;;;;;14.90;14.05;;;;;;;;;;5064303;28;20047;-63
2022/05/16 00:46:15;;;;;;;14.60;13.80;;;;;;;;;;5067971;28;20064;-62
2022/05/16 00:48:41;;;;;;;17.73;16.73;;;;;;;;;;5067902;28;20094;-62
2022/05/16 00:51:10;;;;;;;14.70;13.80;;;;;;;;;;5069045;28;20528;-62
2022/05/16 00:53:35;;;;;;;13.70;12.90;;;;;;;;;;5068571;28;20473;-64
2022/05/16 00:56:01;;;;;;;15.75;14.85;;;;;;;;;;5069200;28;20147;-63
2022/05/16 00:58:26;;;;;;;14.50;13.70;;;;;;;;;;5067783;28;20033;-63
2022/05/16 01:00:52;;;;;;;15.00;14.10;;;;;;;;;;5068353;28;20075;-63
2022/05/16 01:06:05;;;;;;;17.15;16.05;;;;;;;;;;5068705;28;20489;-63
2022/05/16 01:08:33;;;;;;;18.48;17.38;;;;;;;;;;5069001;28;20029;-63
2022/05/16 01:11:05;;;;;;;16.27;15.38;;;;;;;;;;5068715;28;20501;-63
2022/05/16 01:13:31;;;;;;;16.85;15.95;;;;;;;;;;5068062;28;20036;-63
2022/05/16 01:15:59;;;;;;;18.10;16.65;;;;;;;;;;5068835;28;20077;-63
2022/05/16 01:18:25;;;;;;;16.13;15.23;;;;;;;;;;5068334;28;20036;-63
2022/05/16 01:21:12;;;;;;;20.73;19.58;;;;;;;;;;5068879;28;20111;-63
2022/05/16 01:23:48;;;;;;;19.98;18.85;;;;;;;;;;5068600;28;20060;-63
2022/05/16 01:26:17;;;;;;;19.05;17.98;;;;;;;;;;5068156;28;20032;-63
2022/05/16 01:28:42;;;;;;;18.02;17.02;;;;;;;;;;5067735;28;20028;-64
2022/05/16 01:31:08;;;;;;;21.58;20.40;;;;;;;;;;5068338;28;20476;-63
2022/05/16 01:33:33;;;;;;;26.55;25.10;;;;;;;;;;5067293;28;20481;-63
2022/05/16 01:35:59;;;;;;;26.08;24.67;;;;;;;;;;5067991;28;20089;-63
2022/05/16 01:38:28;;;;;;;23.05;21.77;;;;;;;;;;5068116;28;20028;-63
2022/05/16 01:41:00;;;;;;;25.52;24.15;;;;;;;;;;5068439;28;20031;-64
2022/05/16 01:43:32;;;;;;;25.50;24.10;;;;;;;;;;5067602;28;20457;-64
2022/05/16 01:45:58;;;;;;;29.40;27.88;;;;;;;;;;5067862;28;20028;-63
2022/05/16 01:48:23;;;;;;;26.10;24.70;;;;;;;;;;5066136;28;20039;-64
2022/05/16 01:50:50;;;;;;;27.17;25.77;;;;;;;;;;5066420;28;20036;-64
2022/05/16 01:53:16;;;;;;;26.80;25.30;;;;;;;;;;5068058;28;20446;-64
2022/05/16 01:55:42;;;;;;;26.52;25.13;;;;;;;;;;5067593;28;20025;-64
2022/05/16 01:58:09;;;;;;;25.20;23.75;;;;;;;;;;5066967;28;20644;-63
2022/05/16 02:00:35;;;;;;;22.77;21.55;;;;;;;;;;5067709;28;20115;-64
2022/05/16 02:03:02;;;;;;;25.98;24.58;;;;;;;;;;5067347;28;20288;-63
2022/05/16 02:05:28;;;;;;;25.02;23.70;;;;;;;;;;5066299;28;20112;-63
2022/05/16 02:07:54;;;;;;;25.63;24.27;;;;;;;;;;5066470;28;20172;-64
2022/05/16 02:10:23;;;;;;;19.83;18.67;;;;;;;;;;5067693;28;20635;-64
2022/05/16 02:12:49;;;;;;;25.83;24.42;;;;;;;;;;5066767;28;20033;-64
2022/05/16 02:15:19;;;;;;;22.23;21.02;;;;;;;;;;5067648;28;20113;-64
2022/05/16 02:17:45;;;;;;;21.42;20.27;;;;;;;;;;5066529;28;20039;-63
2022/05/16 02:20:11;;;;;;;14.45;13.63;;;;;;;;;;5066307;28;20089;-63
2022/05/16 02:25:21;;;;;;;15.48;14.57;;;;;;;;;;5066268;28;20043;-63
2022/05/16 02:27:47;;;;;;;16.83;15.82;;;;;;;;;;5066882;28;20906;-63
2022/05/16 02:30:13;;;;;;;15.20;14.30;;;;;;;;;;5067099;28;20454;-64
2022/05/16 02:32:39;;;;;;;13.40;12.60;;;;;;;;;;5067312;28;20029;-64
2022/05/16 02:35:05;;;;;;;12.90;12.10;;;;;;;;;;5066537;28;20025;-63
2022/05/16 02:37:31;;;;;;;13.57;12.77;;;;;;;;;;5066945;28;20056;-63
2022/05/16 02:39:56;;;;;;;14.82;13.80;;;;;;;;;;5066296;28;20639;-63
2022/05/16 02:42:22;;;;;;;14.18;13.27;;;;;;;;;;5066589;28;20032;-63
2022/05/16 02:44:47;;;;;;;14.35;13.38;;;;;;;;;;5066350;28;20036;-63
2022/05/16 02:47:16;;;;;;;15.25;13.90;;;;;;;;;;5067377;28;20024;-63
2022/05/16 02:49:41;;;;;;;15.13;14.23;;;;;;;;;;5066380;28;20515;-63
2022/05/16 02:52:07;;;;;;;14.32;13.52;;;;;;;;;;5066680;28;20119;-63
2022/05/16 02:54:33;;;;;;;15.07;14.18;;;;;;;;;;5066854;28;20080;-64
2022/05/16 02:56:59;;;;;;;13.32;12.52;;;;;;;;;;5065840;28;20116;-63
2022/05/16 02:59:32;;;;;;;15.00;14.10;;;;;;;;;;5066788;28;20573;-63
2022/05/16 03:02:01;;;;;;;13.75;12.95;;;;;;;;;;5066512;28;20084;-63
2022/05/16 03:04:26;;;;;;;15.93;15.02;;;;;;;;;;5066061;28;20083;-63
2022/05/16 03:06:53;;;;;;;14.63;13.73;;;;;;;;;;5066481;28;20056;-63
2022/05/16 03:09:18;;;;;;;14.70;13.85;;;;;;;;;;5065464;28;20032;-64
2022/05/16 03:11:44;;;;;;;15.15;14.15;;;;;;;;;;5067133;28;20036;-64
2022/05/16 03:14:11;;;;;;;14.90;14.00;;;;;;;;;;5066647;28;20020;-64
2022/05/16 03:16:37;;;;;;;14.15;13.32;;;;;;;;;;5066717;28;20636;-64
2022/05/16 03:19:03;;;;;;;15.77;14.88;;;;;;;;;;5064663;28;20040;-64
2022/05/16 03:21:29;;;;;;;15.07;14.18;;;;;;;;;;5066523;28;20081;-63
2022/05/16 03:23:55;;;;;;;13.75;12.95;;;;;;;;;;5066363;28;20123;-63
2022/05/16 03:26:21;;;;;;;16.52;15.60;;;;;;;;;;5066525;28;20605;-64
2022/05/16 03:28:46;;;;;;;15.00;14.10;;;;;;;;;;5066345;28;20709;-63
2022/05/16 03:31:11;;;;;;;17.35;16.35;;;;;;;;;;5066708;28;20131;-63
2022/05/16 03:33:37;;;;;;;16.42;15.52;;;;;;;;;;5065847;28;20028;-63
2022/05/16 03:36:03;;;;;;;16.27;15.38;;;;;;;;;;5065814;28;20028;-62
2022/05/16 03:41:13;;;;;;;16.77;15.80;;;;;;;;;;5065776;28;20077;-64
2022/05/16 03:43:40;;;;;;;16.80;15.80;;;;;;;;;;5066456;28;20036;-63
2022/05/16 03:46:06;;;;;;;17.13;16.17;;;;;;;;;;5066030;28;20021;-63
2022/05/16 03:48:33;;;;;;;17.63;16.55;;;;;;;;;;5065623;28;20135;-63
2022/05/16 03:50:59;;;;;;;18.45;17.25;;;;;;;;;;5065734;28;20024;-63
2022/05/16 03:53:25;;;;;;;16.92;15.93;;;;;;;;;;5066237;28;20032;-63
2022/05/16 03:55:50;;;;;;;15.63;14.73;;;;;;;;;;5065538;28;20032;-63
2022/05/16 03:58:16;;;;;;;15.82;14.82;;;;;;;;;;5065629;28;20521;-63
2022/05/16 04:00:41;;;;;;;14.52;13.68;;;;;;;;;;5065441;28;20510;-63
2022/05/16 04:03:07;;;;;;;16.70;15.70;;;;;;;;;;5060320;28;20089;-63
2022/05/16 04:05:32;;;;;;;18.58;16.95;;;;;;;;;;5066022;28;20024;-62
2022/05/16 04:07:58;;;;;;;16.83;15.88;;;;;;;;;;5066202;28;20450;-63
2022/05/16 04:10:24;;;;;;;15.75;14.85;;;;;;;;;;5065707;28;20464;-63
2022/05/16 04:12:50;;;;;;;17.77;16.77;;;;;;;;;;5065442;28;20038;-63
2022/05/16 04:15:16;;;;;;;13.00;12.20;;;;;;;;;;5065153;28;20020;-62
2022/05/16 04:17:41;;;;;;;14.38;13.57;;;;;;;;;;5066157;28;20458;-63
2022/05/16 04:20:09;;;;;;;16.02;15.02;;;;;;;;;;5066469;28;20032;-63
2022/05/16 04:22:35;;;;;;;16.40;15.50;;;;;;;;;;5070148;28;20093;-62
2022/05/16 04:25:00;;;;;;;16.35;15.40;;;;;;;;;;5069477;28;20037;-63
2022/05/16 04:27:26;;;;;;;16.27;15.38;;;;;;;;;;5069340;28;20032;-63
2022/05/16 04:29:52;;;;;;;16.73;15.73;;;;;;;;;;5068399;28;20034;-63
2022/05/16 04:32:17;;;;;;;15.73;14.82;;;;;;;;;;5069849;28;20497;-63
2022/05/16 04:34:42;;;;;;;17.33;16.33;;;;;;;;;;5068472;28;20016;-62
2022/05/16 04:37:08;;;;;;;14.60;13.75;;;;;;;;;;5069413;28;20074;-62
2022/05/16 04:39:33;;;;;;;15.30;14.30;;;;;;;;;;5069661;28;20339;-63
2022/05/16 04:44:43;;;;;;;15.35;14.45;;;;;;;;;;5068764;28;20025;-62
2022/05/16 04:47:09;;;;;;;14.18;13.38;;;;;;;;;;5069703;28;20058;-62
2022/05/16 04:49:35;;;;;;;17.05;16.05;;;;;;;;;;5068773;28;20067;-62
2022/05/16 04:52:01;;;;;;;16.85;15.88;;;;;;;;;;5069439;28;20149;-64
2022/05/16 04:54:27;;;;;;;13.68;12.88;;;;;;;;;;5068238;28;20059;-62
2022/05/16 04:56:53;;;;;;;16.23;15.23;;;;;;;;;;5069383;28;20128;-63
2022/05/16 04:59:20;;;;;;;14.02;13.23;;;;;;;;;;5069130;28;20024;-62
2022/05/16 05:01:48;;;;;;;14.55;13.75;;;;;;;;;;5068902;28;20535;-63
2022/05/16 05:04:15;;;;;;;16.50;15.57;;;;;;;;;;5067830;28;20036;-63
2022/05/16 05:06:41;;;;;;;16.40;15.40;;;;;;;;;;5084252;28;20412;-63
2022/05/16 05:09:07;;;;;;;14.82;14.00;;;;;;;;;;5068659;28;20028;-63
2022/05/16 05:14:32;;;;;;;17.30;16.30;;;;;;;;;;5069173;28;20020;-63
2022/05/16 05:16:58;;;;;;;11.57;10.85;;;;;;;;;;5068705;28;20028;-63
2022/05/16 05:19:23;;;;;;;13.20;12.40;;;;;;;;;;5068747;28;20040;-63
2022/05/16 05:21:48;;;;;;;14.70;13.82;;;;;;;;;;5069119;28;20387;-63
2022/05/16 05:24:15;;;;;;;12.38;11.57;;;;;;;;;;5068413;28;20079;-63
2022/05/16 05:26:42;;;;;;;14.52;13.52;;;;;;;;;;5069068;28;20050;-63
2022/05/16 05:29:08;;;;;;;10.25;9.63;;;;;;;;;;5067658;28;20036;-63
2022/05/16 05:31:34;;;;;;;11.45;10.43;;;;;;;;;;5067778;28;20462;-64
2022/05/16 05:33:59;;;;;;;10.65;10.00;;;;;;;;;;5067517;28;20119;-63
2022/05/16 05:36:28;;;;;;;11.52;10.82;;;;;;;;;;5068035;28;20051;-63
2022/05/16 05:38:53;;;;;;;9.60;8.95;;;;;;;;;;5067279;28;20587;-63
2022/05/16 05:41:22;;;;;;;11.60;10.90;;;;;;;;;;5068033;28;20029;-63
2022/05/16 05:43:47;;;;;;;9.65;9.05;;;;;;;;;;5068126;28;20448;-63
2022/05/16 05:46:13;;;;;;;13.95;13.02;;;;;;;;;;5067792;28;20029;-63
2022/05/16 05:48:38;;;;;;;10.63;10.00;;;;;;;;;;5066603;28;20025;-63
2022/05/16 05:51:03;;;;;;;10.77;10.02;;;;;;;;;;5067860;28;20032;-63
2022/05/16 05:53:29;;;;;;;10.82;10.13;;;;;;;;;;5068035;28;20060;-64
2022/05/16 05:55:54;;;;;;;11.27;10.57;;;;;;;;;;5067534;28;20103;-63
2022/05/16 05:58:20;;;;;;;9.88;9.25;;;;;;;;;;5067727;28;20036;-63
2022/05/16 06:00:46;;;;;;;12.90;12.10;;;;;;;;;;5067749;28;20025;-63
2022/05/16 06:03:12;;;;;;;15.20;14.30;;;;;;;;;;5067782;28;20028;-63
2022/05/16 06:05:37;;;;;;;11.52;10.75;;;;;;;;;;5066854;28;20550;-63
2022/05/16 06:08:03;;;;;;;16.30;15.40;;;;;;;;;;5067376;28;20028;-63
2022/05/16 06:10:29;;;;;;;13.98;13.10;;;;;;;;;;5067595;28;20500;-63
2022/05/16 06:12:54;;;;;;;12.82;12.02;;;;;;;;;;5067075;28;20036;-64
2022/05/16 06:15:21;;;;;;;12.95;12.10;;;;;;;;;;5067514;28;20429;-65
2022/05/16 06:17:46;;;;;;;12.18;11.38;;;;;;;;;;5067337;28;20055;-64
2022/05/16 06:20:13;;;;;;;16.45;15.55;;;;;;;;;;5066901;28;20072;-64
2022/05/16 06:22:39;;;;;;;13.52;10.80;;;;;;;;;;5066944;28;20375;-65
2022/05/16 06:27:52;;;;;;;11.50;10.80;;;;;;;;;;5066480;28;20097;-65
2022/05/16 06:30:19;;;;;;;15.68;14.77;;;;;;;;;;5067531;28;20473;-64
2022/05/16 06:32:45;;;;;;;18.02;16.83;;;;;;;;;;5066948;28;20032;-64
2022/05/16 06:35:11;;;;;;;19.13;18.00;;;;;;;;;;5065995;28;20116;-64
2022/05/16 06:37:36;;;;;;;14.50;13.68;;;;;;;;;;5066864;28;20115;-63
2022/05/16 06:40:02;;;;;;;12.70;11.95;;;;;;;;;;5066739;28;20526;-65
2022/05/16 06:42:27;;;;;;;17.63;16.63;;;;;;;;;;5066199;28;20358;-64
2022/05/16 06:44:53;;;;;;;22.50;21.27;;;;;;;;;;5065770;28;20361;-64
2022/05/16 06:47:18;;;;;;;17.55;16.55;;;;;;;;;;5066926;28;20039;-65
2022/05/16 06:49:44;;;;;;;14.82;13.93;;;;;;;;;;5066192;28;20107;-64
2022/05/16 06:52:10;;;;;;;16.27;15.38;;;;;;;;;;5066201;28;20579;-65
2022/05/16 06:54:35;;;;;;;17.35;16.35;;;;;;;;;;5066733;28;20424;-64
2022/05/16 06:57:00;;;;;;;17.35;16.35;;;;;;;;;;5066289;28;20036;-65
2022/05/16 06:59:26;;;;;;;18.52;17.40;;;;;;;;;;5066317;28;20051;-65
2022/05/16 07:01:51;;;;;;;17.52;16.52;;;;;;;;;;5066645;28;20025;-65
2022/05/16 07:04:16;;;;;;;17.30;16.30;;;;;;;;;;5065916;28;20479;-64
2022/05/16 07:06:42;;;;;;;17.65;16.65;;;;;;;;;;5066368;28;20655;-64
2022/05/16 07:09:07;;;;;;;15.35;14.45;;;;;;;;;;5066182;28;20133;-64
2022/05/16 07:11:32;;;;;;;18.70;17.65;;;;;;;;;;5066499;28;20115;-65
2022/05/16 07:13:58;;;;;;;17.67;16.52;;;;;;;;;;5065602;28;20115;-64
2022/05/16 07:16:24;;;;;;;29.13;27.60;;;;;;;;;;5066513;28;20056;-64
2022/05/16 07:18:49;;;;;;;31.88;30.15;;;;;;;;;;5065131;28;20059;-65
2022/05/16 07:21:14;;;;;;;34.85;33.05;;;;;;;;;;5065272;28;20075;-65
2022/05/16 07:23:40;;;;;;;17.88;16.88;;;;;;;;;;5066192;28;20044;-64
2022/05/16 07:28:49;;;;;;;19.13;18.05;;;;;;;;;;5065648;28;20033;-65
2022/05/16 07:31:16;;;;;;;23.63;22.35;;;;;;;;;;5066303;28;20136;-65
2022/05/16 07:33:41;;;;;;;19.90;18.70;;;;;;;;;;5065011;28;20246;-65
2022/05/16 07:36:07;;;;;;;21.50;20.35;;;;;;;;;;5066420;28;20035;-66
2022/05/16 07:38:33;;;;;;;26.45;25.05;;;;;;;;;;5066232;28;20039;-66
2022/05/16 07:40:58;;;;;;;22.20;20.70;;;;;;;;;;5065712;28;20456;-66
2022/05/16 07:43:26;;;;;;;23.02;21.80;;;;;;;;;;5065252;28;20032;-65
2022/05/16 07:45:51;;;;;;;24.83;23.50;;;;;;;;;;5067012;28;20025;-65
2022/05/16 07:48:17;;;;;;;29.58;27.95;;;;;;;;;;5065778;28;20032;-65
2022/05/16 07:50:44;;;;;;;32.53;30.80;;;;;;;;;;5065573;28;20032;-64
2022/05/16 07:53:14;;;;;;;29.20;27.63;;;;;;;;;;5066258;28;20033;-65
2022/05/16 07:55:42;;;;;;;25.60;24.20;;;;;;;;;;5069041;28;20025;-65
2022/05/16 07:58:07;;;;;;;24.73;23.35;;;;;;;;;;5069515;28;20317;-64
2022/05/16 08:00:33;;;;;;;24.52;23.10;;;;;;;;;;5069940;28;20025;-64
2022/05/16 08:02:59;;;;;;;38.40;36.40;;;;;;;;;;5069833;28;20037;-64
2022/05/16 08:05:24;;;;;;;26.42;24.95;;;;;;;;;;5069253;28;20059;-65
2022/05/16 08:10:36;;;;;;;52.17;49.40;;;;;;;;;;5069468;28;20132;-64
2022/05/16 08:13:06;;;;;;;30.77;29.15;;;;;;;;;;5065704;28;20067;-64
2022/05/16 08:15:33;;;;;;;33.75;32.00;;;;;;;;;;5064965;28;20032;-65
2022/05/16 08:17:59;;;;;;;36.90;34.75;;;;;;;;;;5065640;28;20424;-67
2022/05/16 08:20:26;;;;;;;32.95;31.23;;;;;;;;;;5065421;28;20116;-67
2022/05/16 08:22:52;;;;;;;31.55;29.88;;;;;;;;;;5063981;28;20618;-67
2022/05/16 08:25:18;;;;;;;38.20;36.20;;;;;;;;;;5068683;28;20377;-67
2022/05/16 08:27:43;;;;;;;32.65;30.90;;;;;;;;;;5067977;28;20032;-67
2022/05/16 08:30:09;;;;;;;31.10;29.40;;;;;;;;;;5068060;28;20028;-67
2022/05/16 08:32:35;;;;;;;34.78;32.97;;;;;;;;;;5069258;28;20420;-66
2022/05/16 08:35:06;;;;;;;31.55;29.83;;;;;;;;;;5066461;28;20040;-68
2022/05/16 08:40:17;;;;;;;34.15;32.35;;;;;;;;;;5067104;28;20039;-68
2022/05/16 08:42:56;;;;;;;29.73;27.88;;;;;;;;;;5069187;28;20034;-67
2022/05/16 08:45:31;;;;;;;35.42;33.58;;;;;;;;;;5068423;28;20056;-68
2022/05/16 08:48:17;;;;;;;30.48;28.77;;;;;;;;;;5066617;28;20044;-66
2022/05/16 08:51:19;;;;;;;32.28;30.58;;;;;;;;;;5064629;28;20036;-67
2022/05/16 08:53:50;;;;;;;24.77;23.48;;;;;;;;;;5063594;28;20045;-67
2022/05/16 08:56:26;;;;;;;24.73;23.42;;;;;;;;;;5066231;28;20044;-66
2022/05/16 08:59:02;;;;;;;30.67;29.05;;;;;;;;;;5063907;28;20032;-67
2022/05/16 09:01:44;;;;;;;18.23;17.23;;;;;;;;;;5065112;28;20036;-67
2022/05/16 09:04:47;;;;;;;21.30;20.13;;;;;;;;;;5063809;28;20403;-67
2022/05/16 09:07:19;;;;;;;18.40;17.38;;;;;;;;;;5064611;28;20048;-67
2022/05/16 09:09:53;;;;;;;23.33;22.02;;;;;;;;;;5063375;28;20037;-67
2022/05/16 09:12:30;;;;;;;21.00;19.85;;;;;;;;;;5065699;28;20142;-67
2022/05/16 09:15:15;;;;;;;23.45;22.05;;;;;;;;;;5064130;28;20089;-67
2022/05/16 09:17:49;;;;;;;31.25;29.55;;;;;;;;;;5065476;28;20025;-67
2022/05/16 09:20:46;;;;;;;52.03;49.40;;;;;;;;;;5062981;28;20038;-67
2022/05/16 09:23:46;;;;;;;39.47;37.28;;;;;;;;;;5063726;28;20040;-66
2022/05/16 09:26:33;;;;;;;19.25;18.15;;;;;;;;;;5064444;28;20538;-66
2022/05/16 09:29:12;;;;;;;20.42;19.33;;;;;;;;;;5063832;28;20048;-66
2022/05/16 09:31:42;;;;;;;36.60;34.70;;;;;;;;;;5065175;28;20083;-67
2022/05/16 09:34:09;;;;;;;43.35;41.15;;;;;;;;;;5063632;28;20595;-66
2022/05/16 09:36:38;;;;;;;52.30;49.60;;;;;;;;;;5063581;28;20400;-67
2022/05/16 09:39:06;;;;;;;51.55;48.95;;;;;;;;;;5064672;28;20035;-67
2022/05/16 09:41:34;;;;;;;22.42;21.23;;;;;;;;;;5064392;28;20033;-65
2022/05/16 09:44:23;;;;;;;42.70;40.47;;;;;;;;;;5065987;28;20033;-66
2022/05/16 09:46:49;;;;;;;52.22;49.55;;;;;;;;;;5065726;28;20134;-66
2022/05/16 09:49:26;;;;;;;60.90;57.80;;;;;;;;;;5064056;28;20477;-67
2022/05/16 09:51:54;;;;;;;81.93;77.18;;;;;;;;;;5065008;28;20052;-65
2022/05/16 09:54:37;;;;;;;78.05;74.18;;;;;;;;;;5063509;28;20082;-67
2022/05/16 09:57:12;;;;;;;73.82;70.10;;;;;;;;;;5062881;28;20039;-67
2022/05/16 09:59:47;;;;;;;76.90;73.03;;;;;;;;;;5063597;28;20040;-67
2022/05/16 10:02:12;;;;;;;81.43;77.30;;;;;;;;;;5064702;28;20024;-67
2022/05/16 10:04:40;;;;;;;79.18;75.22;;;;;;;;;;5063830;28;20063;-67
2022/05/16 10:07:06;;;;;;;108.93;103.53;;;;;;;;;;5063613;28;20066;-67
2022/05/16 10:09:47;;;;;;;69.43;65.93;;;;;;;;;;5064403;28;20024;-68
2022/05/16 10:12:16;;;;;;;79.70;75.68;;;;;;;;;;5064152;28;20024;-67
2022/05/16 10:14:43;;;;;;;58.75;55.75;;;;;;;;;;5064421;28;20033;-67
2022/05/16 10:17:12;;;;;;;97.85;92.95;;;;;;;;;;5063041;28;20124;-67
2022/05/16 10:19:40;;;;;;;131.32;124.80;;;;;;;;;;5062831;28;20626;-67
2022/05/16 10:22:14;;;;;;;149.85;142.40;;;;;;;;;;5064367;28;20035;-59
2022/05/16 10:24:45;;;;;;;141.00;133.93;;;;;;;;;;5066832;28;20442;-60
2022/05/16 10:27:23;;;;;;;146.82;139.52;;;;;;;;;;5067283;28;20033;-59
2022/05/16 10:29:52;;;;;;;98.03;93.10;;;;;;;;;;5082531;28;20488;-60
2022/05/16 10:35:23;;;;;;;150.40;142.95;;;;;;;;;;5064727;28;20495;-59
2022/05/16 10:37:53;;;;;;;156.60;148.82;;;;;;;;;;5066498;28;20036;-59
2022/05/16 10:40:36;;;;;;;142.18;135.13;;;;;;;;;;5052705;28;20458;-58
2022/05/16 10:43:22;;;;;;;116.18;110.32;;;;;;;;;;5049856;28;21091;-59
2022/05/16 10:45:53;;;;;;;136.98;130.20;;;;;;;;;;5050131;28;20347;-59
2022/05/16 10:48:44;;;;;;;107.30;101.95;;;;;;;;;;5048485;28;20029;-59
2022/05/16 10:51:23;;;;;;;110.10;104.63;;;;;;;;;;5047472;28;20028;-59
2022/05/16 10:54:04;;;;;;;91.22;86.68;;;;;;;;;;5042770;28;20029;-58
2022/05/16 10:57:07;;;;;;;64.45;61.17;;;;;;;;;;5045952;28;20029;-58
2022/05/16 11:00:06;;;;;;;75.25;71.45;;;;;;;;;;5049190;28;20029;-58
2022/05/16 11:02:55;;;;;;;63.20;60.00;;;;;;;;;;5045450;28;20037;-58
2022/05/16 11:05:34;;;;;;;64.53;61.28;;;;;;;;;;5048439;28;20037;-58
2022/05/16 11:08:45;;;;;;;69.47;65.97;;;;;;;;;;5045916;28;20536;-58
2022/05/16 11:11:25;;;;;;;72.40;68.80;;;;;;;;;;5052027;28;20024;-58
2022/05/16 11:14:06;;;;;;;;;;;;;;;;;;5048708;28;20502;-59
2022/05/16 11:16:34;;;;;;;65.35;62.05;;;;;;;;;;5049097;28;19909;-58
2022/05/16 11:19:20;;;;;;;72.05;68.43;;;;;;;;;;5047190;28;20029;-59
2022/05/16 11:22:04;;;;;;;68.30;64.88;;;;;;;;;;5044435;28;20037;-59
2022/05/16 11:24:52;;;;;;;70.97;67.38;;;;;;;;;;5049851;28;20036;-59
2022/05/16 11:27:49;;;;;;;72.13;68.43;;;;;;;;;;5049974;28;20029;-59
2022/05/16 11:30:34;;;;;;;74.80;71.03;;;;;;;;;;5049111;28;20609;-59
2022/05/16 11:33:22;;;;;;;76.38;72.55;;;;;;;;;;5048113;28;20563;-59
2022/05/16 11:35:50;;;;;;;75.03;71.22;;;;;;;;;;5046856;28;20417;-58
2022/05/16 11:38:35;;;;;;;79.70;75.70;;;;;;;;;;5049795;28;20591;-60
2022/05/16 11:41:38;;;;;;;75.32;71.57;;;;;;;;;;5050793;28;20537;-59
2022/05/16 11:44:23;;;;;;;73.25;69.60;;;;;;;;;;5048547;28;20037;-59
2022/05/16 11:46:56;;;;;;;88.18;83.82;;;;;;;;;;5049280;28;20052;-60
2022/05/16 11:49:35;;;;;;;83.80;79.60;;;;;;;;;;5048250;28;20037;-59
2022/05/16 11:52:24;;;;;;;88.53;84.15;;;;;;;;;;5029761;28;20545;-60
2022/05/16 11:54:58;;;;;;;73.80;70.07;;;;;;;;;;5032673;28;20029;-60
2022/05/16 12:03:12;;;;;;;82.70;78.60;;;;;;;;;;5039732;28;20178;-60
2022/05/16 12:05:37;;;;;;;89.38;84.88;;;;;;;;;;5033547;28;20438;-60
2022/05/16 12:08:33;;;;;;;76.13;72.30;;;;;;;;;;5033434;28;20054;-61
2022/05/16 12:10:58;;;;;;;79.07;75.13;;;;;;;;;;5033826;28;20136;-60
2022/05/16 12:13:33;;;;;;;96.43;91.63;;;;;;;;;;5031871;28;20922;-60
2022/05/16 12:16:13;;;;;;;102.72;97.57;;;;;;;;;;5035437;28;20459;-61
2022/05/16 12:18:43;;;;;;;89.97;85.50;;;;;;;;;;5033665;28;20030;-59
2022/05/16 12:21:30;;;;;;;74.82;71.03;;;;;;;;;;5030231;28;20068;-61
2022/05/16 12:23:59;;;;;;;61.65;58.55;;;;;;;;;;5034389;28;20453;-59
2022/05/16 12:26:28;;;;;;;66.75;63.33;;;;;;;;;;5036177;28;20943;-60
2022/05/16 12:29:08;;;;;;;62.28;59.10;;;;;;;;;;5035077;28;20121;-60
2022/05/16 12:31:48;;;;;;;55.85;53.05;;;;;;;;;;5034914;28;20033;-66
2022/05/16 12:34:14;;;;;;;65.15;61.85;;;;;;;;;;5035321;28;20048;-67
2022/05/16 12:36:40;;;;;;;68.60;65.15;;;;;;;;;;5032543;28;20049;-67
2022/05/16 12:39:14;;;;;;;83.25;79.10;;;;;;;;;;5033837;28;20058;-68
2022/05/16 12:42:15;;;;;;;117.78;111.95;;;;;;;;;;5033447;28;20889;-68
2022/05/16 12:44:52;;;;;;;171.07;162.70;;;;;;;;;;5036081;28;20033;-69
2022/05/16 12:47:38;;;;;;;172.95;164.40;;;;;;;;;;5034152;28;20259;-67
2022/05/16 12:50:24;;;;;;;148.75;141.35;;;;;;;;;;5034233;28;20033;-68
2022/05/16 12:53:34;;;;;;;116.90;111.05;;;;;;;;;;5034614;28;20032;-67
2022/05/16 12:56:47;;;;;;;58.25;55.22;;;;;;;;;;5033153;28;20045;-68
2022/05/16 12:59:18;;;;;;;43.03;40.75;;;;;;;;;;5033147;28;20043;-69
2022/05/16 13:01:48;;;;;;;53.15;50.45;;;;;;;;;;5033613;28;20517;-68
2022/05/16 13:04:43;;;;;;;39.35;37.25;;;;;;;;;;5029972;28;20071;-68
2022/05/16 13:07:18;;;;;;;32.80;31.10;;;;;;;;;;5033513;28;20061;-68
2022/05/16 13:09:49;;;;;;;28.33;26.73;;;;;;;;;;5030014;28;20056;-67
2022/05/16 13:12:30;;;;;;;28.77;27.17;;;;;;;;;;5032343;28;20052;-67
2022/05/16 13:15:12;;;;;;;21.80;20.60;;;;;;;;;;5034857;28;20059;-67
2022/05/16 13:17:40;;;;;;;22.63;21.42;;;;;;;;;;5033109;28;20056;-67
2022/05/16 13:20:10;;;;;;;23.92;22.63;;;;;;;;;;5034940;28;20029;-69
2022/05/16 13:22:37;;;;;;;25.90;24.50;;;;;;;;;;5035048;28;20040;-66
2022/05/16 13:25:03;;;;;;;27.33;25.83;;;;;;;;;;5034542;28;20087;-67
2022/05/16 13:30:19;;;;;;;33.85;32.10;;;;;;;;;;5033878;28;20017;-67
2022/05/16 13:32:45;;;;;;;32.40;30.70;;;;;;;;;;5032536;28;20036;-68
2022/05/16 13:35:26;;;;;;;35.15;33.35;;;;;;;;;;5027851;28;20080;-61
2022/05/16 13:37:53;;;;;;;35.05;33.25;;;;;;;;;;5031113;28;20071;-59
2022/05/16 13:40:31;;;;;;;64.47;61.05;;;;;;;;;;5030699;28;20033;-59
2022/05/16 13:42:56;;;;;;;101.38;96.32;;;;;;;;;;5032113;28;20033;-60
2022/05/16 13:45:24;;;;;;;102.63;97.53;;;;;;;;;;5031060;28;20367;-60
2022/05/16 13:47:51;;;;;;;78.13;74.20;;;;;;;;;;5030045;28;20029;-69
2022/05/16 13:50:25;;;;;;;96.68;91.88;;;;;;;;;;5028061;28;20029;-68
2022/05/16 13:52:50;;;;;;;134.27;127.57;;;;;;;;;;5036357;28;20037;-68
2022/05/16 13:55:18;;;;;;;123.10;116.97;;;;;;;;;;5035347;28;20029;-68
2022/05/16 13:57:44;;;;;;;124.35;118.13;;;;;;;;;;5032108;28;20044;-67
2022/05/16 14:00:21;;;;;;;102.75;97.65;;;;;;;;;;5032495;28;20379;-67
2022/05/16 14:02:50;;;;;;;128.20;121.78;;;;;;;;;;5030800;28;20049;-67
2022/05/16 14:05:36;;;;;;;136.88;130.07;;;;;;;;;;5030719;28;20103;-67
2022/05/16 14:08:03;;;;;;;131.95;125.40;;;;;;;;;;5030270;28;20060;-65
2022/05/16 14:10:32;;;;;;;148.70;141.27;;;;;;;;;;5032833;28;20481;-66
2022/05/16 14:13:00;;;;;;;141.32;134.25;;;;;;;;;;5027695;28;20114;-64
2022/05/16 14:15:38;;;;;;;144.32;137.23;;;;;;;;;;5031208;28;20428;-67
2022/05/16 14:18:06;;;;;;;145.05;137.88;;;;;;;;;;5030823;28;20279;-67
2022/05/16 14:20:51;;;;;;;120.47;114.35;;;;;;;;;;5031857;28;20477;-66
2022/05/16 14:23:22;;;;;;;108.13;102.72;;;;;;;;;;5035428;28;20550;-67
2022/05/16 14:25:52;;;;;;;106.47;101.20;;;;;;;;;;5034717;28;20055;-67
2022/05/16 14:28:27;;;;;;;109.22;103.78;;;;;;;;;;5033422;28;20053;-67
2022/05/16 14:31:15;;;;;;;106.05;100.70;;;;;;;;;;5030762;28;20044;-68
2022/05/16 14:33:50;;;;;;;71.80;68.07;;;;;;;;;;5027145;28;20045;-66
2022/05/16 14:36:24;;;;;;;83.82;79.63;;;;;;;;;;5032710;28;20037;-66
2022/05/16 14:38:51;;;;;;;67.90;64.45;;;;;;;;;;5030516;28;20107;-67
2022/05/16 14:41:25;;;;;;;63.50;60.28;;;;;;;;;;5034885;28;20112;-66
2022/05/16 14:44:06;;;;;;;48.70;46.20;;;;;;;;;;5027977;28;20029;-67
2022/05/16 14:46:43;;;;;;;41.17;39.08;;;;;;;;;;5030087;28;20033;-67
2022/05/16 14:49:15;;;;;;;30.40;28.80;;;;;;;;;;5033161;28;20528;-67
2022/05/16 14:51:43;;;;;;;29.77;28.15;;;;;;;;;;5030307;28;20065;-68
2022/05/16 14:54:19;;;;;;;26.73;25.23;;;;;;;;;;5033667;28;20171;-67
2022/05/16 14:56:44;;;;;;;25.23;23.92;;;;;;;;;;5036242;28;20419;-67
2022/05/16 14:59:10;;;;;;;21.48;20.27;;;;;;;;;;5032298;28;20055;-67
2022/05/16 15:04:19;;;;;;;21.73;20.52;;;;;;;;;;5029132;28;20140;-67
2022/05/16 15:06:44;;;;;;;19.40;18.30;;;;;;;;;;5033981;28;20112;-66
2022/05/16 15:09:16;;;;;;;17.50;16.50;;;;;;;;;;5033722;28;20115;-67
2022/05/16 15:11:48;;;;;;;15.55;14.65;;;;;;;;;;5031581;28;20048;-67
2022/05/16 15:14:14;;;;;;;17.38;16.38;;;;;;;;;;5031462;28;20029;-66
2022/05/16 15:16:41;;;;;;;15.65;14.75;;;;;;;;;;5031878;28;20041;-65